createdAt,value
2022-12-16T00:00:06.592Z,50.866859
2022-12-16T00:01:06.627Z,50.866753
2022-12-16T00:02:07.665Z,50.866779
2022-12-16T00:03:06.631Z,50.866760
2022-12-16T00:04:06.568Z,50.866810
2022-12-16T00:05:06.549Z,50.866875
2022-12-16T00:06:06.560Z,50.866829
2022-12-16T00:07:06.537Z,50.866768
2022-12-16T00:08:06.535Z,50.866653
2022-12-16T00:09:06.528Z,50.866596
2022-12-16T00:10:06.523Z,50.866619
2022-12-16T00:11:06.522Z,50.866619
2022-12-16T00:12:06.508Z,50.866619
2022-12-16T00:13:10.523Z,50.866619
2022-12-16T00:14:07.487Z,50.866619
2022-12-16T00:15:06.477Z,50.866554
2022-12-16T00:16:06.609Z,50.866558
2022-12-16T00:17:07.463Z,50.866558
2022-12-16T00:18:06.461Z,50.866619
2022-12-16T00:19:06.447Z,50.866619
2022-12-16T00:20:06.444Z,50.866646
2022-12-16T00:21:06.436Z,50.866688
2022-12-16T00:22:07.022Z,50.866772
2022-12-16T00:23:07.005Z,50.866745
2022-12-16T00:24:06.410Z,50.866646
2022-12-16T00:25:06.430Z,50.866760
2022-12-16T00:26:06.411Z,50.866825
2022-12-16T00:30:49.293Z,50.866821
2022-12-16T00:31:49.311Z,50.866875
2022-12-16T00:32:50.142Z,50.866795
2022-12-16T00:33:49.268Z,50.866837
2022-12-16T00:34:49.250Z,50.866806
2022-12-16T00:35:49.245Z,50.866604
2022-12-16T00:36:49.245Z,50.866665
2022-12-16T00:37:49.242Z,50.866737
2022-12-16T00:38:49.251Z,50.866756
2022-12-16T00:39:49.220Z,50.866737
2022-12-16T00:40:49.230Z,50.866764
2022-12-16T00:41:49.235Z,50.866783
2022-12-16T00:47:58.068Z,50.866684
2022-12-16T00:48:58.073Z,50.866653
2022-12-16T00:49:58.062Z,50.866653
2022-12-16T00:50:58.046Z,50.866642
2022-12-16T00:51:58.045Z,50.866619
2022-12-16T00:52:58.045Z,50.866673
2022-12-16T00:53:58.029Z,50.866684
2022-12-16T00:54:58.008Z,50.866627
2022-12-16T00:55:58.023Z,50.866764
2022-12-16T00:56:58.011Z,50.866741
2022-12-16T00:57:57.987Z,50.866814
2022-12-16T00:58:57.999Z,50.866760
2022-12-16T00:59:57.971Z,50.866718
2022-12-16T01:00:58.035Z,50.866711
2022-12-16T01:01:58.333Z,50.866711
2022-12-16T01:02:58.113Z,50.866684
2022-12-16T01:13:46.910Z,50.866428
2022-12-16T01:14:46.906Z,50.866547
2022-12-16T01:15:46.909Z,50.866669
2022-12-16T01:16:46.968Z,50.866570
2022-12-16T01:17:46.882Z,50.866619
2022-12-16T01:18:46.872Z,50.866707
2022-12-16T01:19:47.864Z,50.866669
2022-12-16T01:20:46.867Z,50.866829
2022-12-16T01:21:46.867Z,50.866657
2022-12-16T01:22:46.868Z,50.866673
2022-12-16T01:23:46.836Z,50.866756
2022-12-16T01:24:46.830Z,50.866695
2022-12-16T01:25:46.820Z,50.866531
2022-12-16T01:26:46.820Z,50.866718
2022-12-16T01:27:46.802Z,50.866745
2022-12-16T01:28:46.802Z,50.866661
2022-12-16T01:29:46.787Z,50.866634
2022-12-16T01:30:46.792Z,50.866581
2022-12-16T01:31:46.839Z,50.866650
2022-12-16T01:32:46.781Z,50.866646
2022-12-16T01:33:46.761Z,50.866638
2022-12-16T01:34:51.055Z,50.866798
2022-12-16T01:35:55.812Z,50.866684
2022-12-16T01:36:48.767Z,50.866669
2022-12-16T01:37:46.741Z,50.866718
2022-12-16T01:38:46.727Z,50.866665
2022-12-16T01:39:46.725Z,50.866772
2022-12-16T01:40:47.710Z,50.866692
2022-12-16T01:41:47.700Z,50.866741
2022-12-16T01:42:46.696Z,50.866726
2022-12-16T01:43:46.696Z,50.866749
2022-12-16T01:44:46.673Z,50.866768
2022-12-16T01:45:46.722Z,50.866760
2022-12-16T01:46:46.661Z,50.866787
2022-12-16T01:47:46.670Z,50.866798
2022-12-16T01:48:46.648Z,50.866791
2022-12-16T01:49:46.646Z,50.866764
2022-12-16T01:50:46.640Z,50.866829
2022-12-16T01:51:52.457Z,50.866871
2022-12-16T01:52:48.619Z,50.866798
2022-12-16T01:53:46.613Z,50.866791
2022-12-16T01:54:46.604Z,50.866741
2022-12-16T01:55:46.591Z,50.866798
2022-12-16T01:56:46.597Z,50.866798
2022-12-16T01:57:46.574Z,50.866772
2022-12-16T01:58:46.589Z,50.866802
2022-12-16T01:59:46.568Z,50.866837
2022-12-16T02:00:46.597Z,50.866806
2022-12-16T02:01:46.625Z,50.866787
2022-12-16T02:02:46.667Z,50.866760
2022-12-16T02:03:46.530Z,50.866737
2022-12-16T02:04:46.532Z,50.866810
2022-12-16T02:05:46.517Z,50.866795
2022-12-16T02:06:46.506Z,50.866825
2022-12-16T02:07:46.507Z,50.866810
2022-12-16T02:08:46.487Z,50.866917
2022-12-16T02:09:46.480Z,50.866802
2022-12-16T02:10:46.494Z,50.866703
2022-12-16T02:11:46.464Z,50.866848
2022-12-16T02:12:46.457Z,50.866592
2022-12-16T02:13:46.446Z,50.866474
2022-12-16T02:14:46.444Z,50.866554
2022-12-16T02:15:46.454Z,50.866451
2022-12-16T02:16:46.457Z,50.866421
2022-12-16T02:17:46.422Z,50.866478
2022-12-16T02:18:46.438Z,50.866631
2022-12-16T02:19:46.427Z,50.866676
2022-12-16T02:20:46.410Z,50.866840
2022-12-16T02:21:46.401Z,50.866947
2022-12-16T02:22:46.393Z,50.866920
2022-12-16T02:23:46.378Z,50.866882
2022-12-16T02:24:46.371Z,50.866932
2022-12-16T02:25:46.377Z,50.866962
2022-12-16T02:26:46.361Z,50.866962
2022-12-16T02:27:46.350Z,50.866943
2022-12-16T02:28:46.347Z,50.866917
2022-12-16T02:29:46.338Z,50.866985
2022-12-16T02:30:46.363Z,50.866959
2022-12-16T02:31:49.232Z,50.866871
2022-12-16T02:32:48.317Z,50.866741
2022-12-16T02:33:46.308Z,50.866753
2022-12-16T02:34:46.305Z,50.866863
2022-12-16T02:35:46.297Z,50.866837
2022-12-16T02:36:46.306Z,50.866901
2022-12-16T02:37:46.276Z,50.866890
2022-12-16T02:38:46.264Z,50.866898
2022-12-16T02:39:46.261Z,50.866844
2022-12-16T02:40:46.251Z,50.866844
2022-12-16T02:41:46.285Z,50.866898
2022-12-16T02:42:46.244Z,50.866898
2022-12-16T02:43:46.227Z,50.866806
2022-12-16T02:44:46.261Z,50.866810
2022-12-16T02:45:46.251Z,50.866886
2022-12-16T02:46:46.205Z,50.866882
2022-12-16T02:47:46.203Z,50.866844
2022-12-16T02:48:46.194Z,50.866825
2022-12-16T02:49:46.183Z,50.866871
2022-12-16T02:50:46.178Z,50.866791
2022-12-16T02:51:46.174Z,50.866886
2022-12-16T02:52:46.164Z,50.866917
2022-12-16T02:53:46.178Z,50.867043
2022-12-16T02:54:46.143Z,50.867245
2022-12-16T02:55:46.138Z,50.867233
2022-12-16T02:56:46.131Z,50.867138
2022-12-16T02:57:46.119Z,50.867054
2022-12-16T02:58:47.116Z,50.867428
2022-12-16T02:59:46.112Z,50.867020
2022-12-16T03:00:46.104Z,50.867031
2022-12-16T03:01:46.203Z,50.867027
2022-12-16T03:02:46.166Z,50.867229
2022-12-16T03:03:46.106Z,50.867077
2022-12-16T03:04:46.071Z,50.867073
2022-12-16T03:05:46.783Z,50.867062
2022-12-16T03:06:46.778Z,50.867184
2022-12-16T03:07:46.051Z,50.867252
2022-12-16T03:08:46.042Z,50.867264
2022-12-16T03:09:46.030Z,50.867306
2022-12-16T03:10:46.021Z,50.867374
2022-12-16T03:11:46.018Z,50.867409
2022-12-16T03:12:47.014Z,50.866955
2022-12-16T03:13:46.001Z,50.866936
2022-12-16T03:14:45.996Z,50.866837
2022-12-16T03:15:45.984Z,50.866852
2022-12-16T03:16:46.124Z,50.866787
2022-12-16T03:17:45.968Z,50.866917
2022-12-16T03:18:45.991Z,50.866951
2022-12-16T03:19:45.965Z,50.866955
2022-12-16T03:20:45.946Z,50.866917
2022-12-16T03:21:45.936Z,50.866817
2022-12-16T03:22:45.939Z,50.866852
2022-12-16T03:23:45.929Z,50.866833
2022-12-16T03:24:45.927Z,50.866833
2022-12-16T03:25:47.715Z,50.866737
2022-12-16T03:26:45.911Z,50.866837
2022-12-16T03:27:45.903Z,50.866882
2022-12-16T03:28:45.884Z,50.866764
2022-12-16T03:29:45.887Z,50.866802
2022-12-16T03:30:45.970Z,50.866730
2022-12-16T03:31:45.878Z,50.866734
2022-12-16T03:32:45.867Z,50.866749
2022-12-16T03:33:45.852Z,50.866821
2022-12-16T03:34:45.842Z,50.867001
2022-12-16T03:35:45.848Z,50.866844
2022-12-16T03:36:45.835Z,50.866882
2022-12-16T03:37:45.831Z,50.866909
2022-12-16T03:38:45.811Z,50.866798
2022-12-16T03:39:45.795Z,50.866673
2022-12-16T03:40:46.825Z,50.866810
2022-12-16T03:41:45.782Z,50.866848
2022-12-16T03:42:45.785Z,50.866886
2022-12-16T03:43:45.774Z,50.866886
2022-12-16T03:44:45.769Z,50.866871
2022-12-16T03:45:45.847Z,50.866768
2022-12-16T03:46:45.826Z,50.866749
2022-12-16T03:47:45.746Z,50.866894
2022-12-16T03:48:45.738Z,50.866703
2022-12-16T03:49:45.734Z,50.866741
2022-12-16T03:50:45.719Z,50.866787
2022-12-16T03:51:45.718Z,50.866806
2022-12-16T03:52:45.718Z,50.866814
2022-12-16T03:53:45.701Z,50.866695
2022-12-16T03:54:45.697Z,50.866917
2022-12-16T03:55:45.684Z,50.866821
2022-12-16T03:56:45.691Z,50.866833
2022-12-16T03:57:45.672Z,50.866772
2022-12-16T03:58:45.670Z,50.866753
2022-12-16T03:59:45.660Z,50.866905
2022-12-16T04:00:45.645Z,50.866951
2022-12-16T04:01:46.340Z,50.866760
2022-12-16T04:02:45.809Z,50.866863
2022-12-16T04:03:45.667Z,50.866661
2022-12-16T04:04:45.615Z,50.866665
2022-12-16T04:05:45.609Z,50.866573
2022-12-16T04:06:45.598Z,50.866669
2022-12-16T04:07:45.600Z,50.866776
2022-12-16T04:08:45.582Z,50.866726
2022-12-16T04:09:45.579Z,50.866730
2022-12-16T04:10:45.567Z,50.866886
2022-12-16T04:11:45.569Z,50.866802
2022-12-16T04:12:45.561Z,50.867004
2022-12-16T04:13:45.555Z,50.866745
2022-12-16T04:14:50.282Z,50.866894
2022-12-16T04:15:47.603Z,50.866985
2022-12-16T04:16:45.524Z,50.866821
2022-12-16T04:17:45.520Z,50.866894
2022-12-16T04:18:45.513Z,50.866772
2022-12-16T04:19:45.507Z,50.866993
2022-12-16T04:20:45.496Z,50.867043
2022-12-16T04:21:45.486Z,50.867054
2022-12-16T04:22:45.502Z,50.866848
2022-12-16T04:23:45.481Z,50.867161
2022-12-16T04:24:45.479Z,50.866814
2022-12-16T04:25:45.459Z,50.866856
2022-12-16T04:26:45.458Z,50.866894
2022-12-16T04:27:45.451Z,50.866905
2022-12-16T04:28:45.449Z,50.866924
2022-12-16T04:29:47.459Z,50.866776
2022-12-16T04:30:45.495Z,50.867001
2022-12-16T04:31:46.283Z,50.866867
2022-12-16T04:32:45.807Z,50.866905
2022-12-16T04:33:45.399Z,50.867077
2022-12-16T04:34:45.405Z,50.867104
2022-12-16T04:35:45.394Z,50.867096
2022-12-16T04:36:45.384Z,50.867279
2022-12-16T04:37:45.382Z,50.867085
2022-12-16T04:38:45.369Z,50.866913
2022-12-16T04:39:45.359Z,50.866821
2022-12-16T04:40:45.354Z,50.866707
2022-12-16T04:41:45.347Z,50.866783
2022-12-16T04:42:45.340Z,50.866817
2022-12-16T04:43:45.325Z,50.866642
2022-12-16T04:44:45.318Z,50.866581
2022-12-16T04:45:45.320Z,50.866535
2022-12-16T04:46:45.378Z,50.866535
2022-12-16T04:47:45.301Z,50.866470
2022-12-16T04:48:45.291Z,50.866600
2022-12-16T04:49:45.292Z,50.866669
2022-12-16T04:50:45.275Z,50.866680
2022-12-16T04:51:45.268Z,50.866714
2022-12-16T04:52:46.266Z,50.866680
2022-12-16T04:53:45.252Z,50.866779
2022-12-16T04:54:45.250Z,50.866547
2022-12-16T04:55:45.238Z,50.866566
2022-12-16T04:56:45.233Z,50.866684
2022-12-16T04:57:45.225Z,50.866703
2022-12-16T04:58:45.208Z,50.866833
2022-12-16T04:59:45.205Z,50.866974
2022-12-16T05:00:45.195Z,50.866978
2022-12-16T05:01:45.345Z,50.867081
2022-12-16T05:02:45.359Z,50.866924
2022-12-16T05:03:45.216Z,50.866997
2022-12-16T05:04:45.169Z,50.866829
2022-12-16T05:05:45.709Z,50.866993
2022-12-16T05:06:45.172Z,50.866871
2022-12-16T05:07:45.715Z,50.866619
2022-12-16T05:08:45.158Z,50.866501
2022-12-16T05:09:45.149Z,50.866234
2022-12-16T05:10:45.134Z,50.866425
2022-12-16T05:11:45.117Z,50.866631
2022-12-16T05:12:45.121Z,50.866798
2022-12-16T05:13:45.109Z,50.866955
2022-12-16T05:14:45.100Z,50.866722
2022-12-16T05:15:45.126Z,50.866680
2022-12-16T05:16:45.098Z,50.866699
2022-12-16T05:17:45.076Z,50.866688
2022-12-16T05:18:45.075Z,50.866722
2022-12-16T05:19:45.066Z,50.866776
2022-12-16T05:20:45.055Z,50.866699
2022-12-16T05:21:45.047Z,50.866703
2022-12-16T05:22:45.052Z,50.866737
2022-12-16T05:23:45.035Z,50.866718
2022-12-16T05:24:48.529Z,50.866741
2022-12-16T05:25:47.015Z,50.866753
2022-12-16T05:26:45.010Z,50.866695
2022-12-16T05:27:45.008Z,50.866756
2022-12-16T05:28:44.995Z,50.866760
2022-12-16T05:29:44.998Z,50.866768
2022-12-16T05:30:45.078Z,50.866798
2022-12-16T05:31:45.007Z,50.866745
2022-12-16T05:32:44.962Z,50.866810
2022-12-16T05:33:44.985Z,50.866810
2022-12-16T05:34:44.953Z,50.866734
2022-12-16T05:35:44.948Z,50.866745
2022-12-16T05:36:45.713Z,50.866764
2022-12-16T05:37:44.936Z,50.866718
2022-12-16T05:38:44.920Z,50.866695
2022-12-16T05:39:44.963Z,50.866684
2022-12-16T05:40:44.905Z,50.866726
2022-12-16T05:41:44.899Z,50.866821
2022-12-16T05:42:44.894Z,50.866840
2022-12-16T05:43:44.884Z,50.866776
2022-12-16T05:44:44.884Z,50.866718
2022-12-16T05:45:45.336Z,50.866722
2022-12-16T05:46:44.938Z,50.866814
2022-12-16T05:47:45.713Z,50.866779
2022-12-16T05:48:47.829Z,50.866760
2022-12-16T05:49:45.839Z,50.866707
2022-12-16T05:50:44.839Z,50.866718
2022-12-16T05:51:44.822Z,50.866722
2022-12-16T05:52:44.822Z,50.866768
2022-12-16T05:53:44.818Z,50.866856
2022-12-16T05:54:44.799Z,50.866848
2022-12-16T05:55:44.811Z,50.866787
2022-12-16T05:56:44.791Z,50.866768
2022-12-16T05:57:44.780Z,50.866825
2022-12-16T05:58:44.797Z,50.866783
2022-12-16T05:59:44.768Z,50.866741
2022-12-16T06:00:44.762Z,50.866745
2022-12-16T06:01:44.925Z,50.866894
2022-12-16T06:02:44.885Z,50.867001
2022-12-16T06:03:44.879Z,50.866871
2022-12-16T06:04:44.729Z,50.866779
2022-12-16T06:05:44.728Z,50.866802
2022-12-16T06:06:44.727Z,50.866760
2022-12-16T06:07:44.712Z,50.866821
2022-12-16T06:08:44.707Z,50.866787
2022-12-16T06:09:44.687Z,50.866783
2022-12-16T06:10:44.694Z,50.866825
2022-12-16T06:11:44.728Z,50.866894
2022-12-16T06:12:44.673Z,50.866936
2022-12-16T06:13:44.658Z,50.866928
2022-12-16T06:14:44.664Z,50.866924
2022-12-16T06:15:44.646Z,50.866982
2022-12-16T06:16:44.664Z,50.867020
2022-12-16T06:17:45.643Z,50.866909
2022-12-16T06:18:44.623Z,50.866905
2022-12-16T06:19:44.625Z,50.866905
2022-12-16T06:20:44.626Z,50.866928
2022-12-16T06:21:44.602Z,50.866920
2022-12-16T06:22:45.324Z,50.866917
2022-12-16T06:23:44.587Z,50.866928
2022-12-16T06:24:44.581Z,50.866890
2022-12-16T06:25:44.583Z,50.866898
2022-12-16T06:26:44.567Z,50.866966
2022-12-16T06:27:44.558Z,50.866928
2022-12-16T06:28:46.135Z,50.866882
2022-12-16T06:29:45.540Z,50.866886
2022-12-16T06:30:44.554Z,50.866867
2022-12-16T06:31:44.576Z,50.866852
2022-12-16T06:32:44.525Z,50.866840
2022-12-16T06:33:44.514Z,50.866829
2022-12-16T06:34:44.506Z,50.866806
2022-12-16T06:35:44.492Z,50.866898
2022-12-16T06:36:44.498Z,50.866798
2022-12-16T06:37:44.482Z,50.866859
2022-12-16T06:38:44.478Z,50.866943
2022-12-16T06:39:47.526Z,50.866859
2022-12-16T06:40:45.472Z,50.866989
2022-12-16T06:41:45.219Z,50.867023
2022-12-16T06:42:44.448Z,50.866917
2022-12-16T06:43:44.448Z,50.866882
2022-12-16T06:44:44.437Z,50.866859
2022-12-16T06:45:44.473Z,50.866837
2022-12-16T06:46:44.417Z,50.866859
2022-12-16T06:47:44.418Z,50.866840
2022-12-16T06:48:44.444Z,50.866810
2022-12-16T06:49:44.533Z,50.866814
2022-12-16T06:50:45.141Z,50.866840
2022-12-16T06:51:45.378Z,50.866821
2022-12-16T06:52:44.390Z,50.866829
2022-12-16T07:05:53.361Z,50.866722
2022-12-16T07:06:52.358Z,50.866703
2022-12-16T07:07:52.520Z,50.866699
2022-12-16T07:08:53.335Z,50.866673
2022-12-16T07:09:53.473Z,50.866684
2022-12-16T07:10:52.346Z,50.866711
2022-12-16T07:11:52.314Z,50.866707
2022-12-16T07:12:52.310Z,50.866745
2022-12-16T07:13:52.363Z,50.866695
2022-12-16T07:14:53.209Z,50.866688
2022-12-16T07:15:52.287Z,50.866699
2022-12-16T07:16:52.346Z,50.866707
2022-12-16T07:17:52.281Z,50.866722
2022-12-16T07:18:52.279Z,50.866737
2022-12-16T07:19:52.273Z,50.866756
2022-12-16T07:20:52.262Z,50.866737
2022-12-16T07:21:52.251Z,50.866737
2022-12-16T07:23:01.066Z,50.866737
2022-12-16T07:23:54.238Z,50.866749
2022-12-16T07:24:52.222Z,50.866734
2022-12-16T07:25:52.220Z,50.866680
2022-12-16T07:26:52.220Z,50.866718
2022-12-16T07:27:52.282Z,50.866711
2022-12-16T07:28:52.209Z,50.866703
2022-12-16T07:29:52.193Z,50.866714
2022-12-16T07:30:52.181Z,50.866772
2022-12-16T07:31:52.286Z,50.866749
2022-12-16T07:32:52.168Z,50.866718
2022-12-16T07:33:52.150Z,50.866699
2022-12-16T07:34:52.161Z,50.866745
2022-12-16T07:35:52.139Z,50.866734
2022-12-16T07:36:53.129Z,50.866730
2022-12-16T07:37:52.196Z,50.866756
2022-12-16T07:38:52.141Z,50.866699
2022-12-16T07:39:55.218Z,50.866673
2022-12-16T07:40:53.107Z,50.866726
2022-12-16T07:41:52.104Z,50.866714
2022-12-16T07:42:52.132Z,50.866737
2022-12-16T07:43:52.084Z,50.866737
2022-12-16T07:44:52.111Z,50.866707
2022-12-16T07:45:52.094Z,50.866608
2022-12-16T07:46:52.067Z,50.866585
2022-12-16T07:47:52.049Z,50.866558
2022-12-16T07:48:52.059Z,50.866528
2022-12-16T07:49:52.048Z,50.866493
2022-12-16T07:50:52.022Z,50.866581
2022-12-16T07:51:52.051Z,50.866638
2022-12-16T07:52:52.010Z,50.866657
2022-12-16T07:53:52.009Z,50.866699
2022-12-16T07:54:51.998Z,50.866692
2022-12-16T07:55:51.990Z,50.866665
2022-12-16T07:56:51.989Z,50.866669
2022-12-16T07:57:51.967Z,50.866711
2022-12-16T07:58:51.963Z,50.866673
2022-12-16T07:59:51.968Z,50.866673
2022-12-16T08:00:51.972Z,50.866756
2022-12-16T08:01:52.634Z,50.866913
2022-12-16T08:02:52.094Z,50.867126
2022-12-16T08:03:52.172Z,50.867172
2022-12-16T08:04:51.915Z,50.866997
2022-12-16T08:05:51.920Z,50.867050
2022-12-16T08:06:51.899Z,50.866966
2022-12-16T08:07:51.897Z,50.867107
2022-12-16T08:08:51.893Z,50.867188
2022-12-16T08:09:51.894Z,50.866989
2022-12-16T08:10:51.886Z,50.866791
2022-12-16T08:11:51.872Z,50.866894
2022-12-16T08:12:51.921Z,50.866863
2022-12-16T08:13:51.862Z,50.866650
2022-12-16T08:14:51.858Z,50.866585
2022-12-16T08:15:51.851Z,50.866730
2022-12-16T08:16:51.885Z,50.866879
2022-12-16T08:17:52.458Z,50.866795
2022-12-16T08:18:51.818Z,50.866604
2022-12-16T08:19:51.868Z,50.866360
2022-12-16T08:20:51.800Z,50.866329
2022-12-16T08:21:59.726Z,50.866604
2022-12-16T08:22:54.294Z,50.866745
2022-12-16T08:30:01.967Z,50.866714
2022-12-16T08:30:59.252Z,50.866550
2022-12-16T08:32:00.151Z,50.866940
2022-12-16T08:33:07.189Z,50.866608
2022-12-16T08:34:01.152Z,50.866405
2022-12-16T08:35:00.109Z,50.866684
2022-12-16T08:35:59.113Z,50.866741
2022-12-16T08:36:59.110Z,50.866592
2022-12-16T08:37:59.097Z,50.866909
2022-12-16T08:38:59.099Z,50.866581
2022-12-16T08:40:25.637Z,50.866566
2022-12-16T08:41:01.071Z,50.866505
2022-12-16T08:41:59.068Z,50.866631
2022-12-16T08:42:59.062Z,50.866657
2022-12-16T08:43:59.046Z,50.866776
2022-12-16T08:44:59.045Z,50.866875
2022-12-16T08:45:59.059Z,50.866821
2022-12-16T08:46:59.060Z,50.866714
2022-12-16T08:47:59.016Z,50.866699
2022-12-16T08:48:59.010Z,50.866730
2022-12-16T08:50:01.712Z,50.866741
2022-12-16T08:51:00.009Z,50.866718
2022-12-16T08:51:59.012Z,50.866791
2022-12-16T08:52:58.983Z,50.866821
2022-12-16T08:53:58.977Z,50.866829
2022-12-16T08:54:58.973Z,50.866791
2022-12-16T08:55:58.969Z,50.866776
2022-12-16T08:56:58.973Z,50.866795
2022-12-16T08:57:58.944Z,50.866753
2022-12-16T08:58:58.933Z,50.866810
2022-12-16T08:59:58.941Z,50.866734
2022-12-16T09:01:04.696Z,50.866749
2022-12-16T09:02:00.995Z,50.866779
2022-12-16T09:02:59.214Z,50.866814
2022-12-16T09:03:58.977Z,50.866783
2022-12-16T09:04:59.900Z,50.866882
2022-12-16T09:05:58.876Z,50.866764
2022-12-16T09:06:58.871Z,50.866764
2022-12-16T09:07:58.855Z,50.866810
2022-12-16T09:08:58.845Z,50.866783
2022-12-16T09:09:58.862Z,50.866913
2022-12-16T09:10:58.842Z,50.866829
2022-12-16T09:11:58.829Z,50.866753
2022-12-16T09:12:58.821Z,50.866783
2022-12-16T09:13:58.809Z,50.866753
2022-12-16T09:14:58.798Z,50.866817
2022-12-16T09:16:00.062Z,50.866779
2022-12-16T09:16:58.791Z,50.866798
2022-12-16T09:17:58.804Z,50.866776
2022-12-16T09:18:58.776Z,50.866776
2022-12-16T09:19:58.770Z,50.866791
2022-12-16T09:20:58.780Z,50.866806
2022-12-16T09:21:58.749Z,50.866768
2022-12-16T09:22:58.762Z,50.866825
2022-12-16T09:23:58.750Z,50.866783
2022-12-16T09:24:58.730Z,50.866745
2022-12-16T09:25:58.840Z,50.866795
2022-12-16T09:26:58.854Z,50.866730
2022-12-16T09:27:58.703Z,50.866730
2022-12-16T09:28:58.701Z,50.866661
2022-12-16T09:29:58.691Z,50.866707
2022-12-16T09:30:58.764Z,50.866707
2022-12-16T09:31:58.670Z,50.866768
2022-12-16T09:32:58.679Z,50.866806
2022-12-16T09:33:58.653Z,50.866833
2022-12-16T09:34:58.648Z,50.866882
2022-12-16T09:35:58.641Z,50.866840
2022-12-16T09:36:58.643Z,50.866814
2022-12-16T09:37:58.649Z,50.866848
2022-12-16T09:38:58.633Z,50.866859
2022-12-16T09:39:58.611Z,50.866829
2022-12-16T09:40:58.637Z,50.866886
2022-12-16T09:41:58.606Z,50.866791
2022-12-16T09:42:59.553Z,50.866787
2022-12-16T09:43:59.485Z,50.866833
2022-12-16T09:44:58.574Z,50.866791
2022-12-16T09:45:58.596Z,50.866791
2022-12-16T09:47:00.958Z,50.866772
2022-12-16T09:48:00.549Z,50.866791
2022-12-16T09:48:58.557Z,50.866829
2022-12-16T09:49:58.540Z,50.866814
2022-12-16T09:50:58.525Z,50.866798
2022-12-16T09:51:58.521Z,50.866783
2022-12-16T09:52:58.504Z,50.866875
2022-12-16T09:53:59.500Z,50.866795
2022-12-16T09:54:58.504Z,50.866821
2022-12-16T09:55:58.494Z,50.866772
2022-12-16T09:56:58.486Z,50.866734
2022-12-16T09:57:58.474Z,50.866741
2022-12-16T09:58:58.479Z,50.866753
2022-12-16T09:59:58.465Z,50.866821
2022-12-16T10:00:58.455Z,50.866829
2022-12-16T10:01:58.623Z,50.866825
2022-12-16T10:03:04.884Z,50.866875
2022-12-16T10:04:00.513Z,50.866791
2022-12-16T10:04:58.421Z,50.866798
2022-12-16T10:05:58.416Z,50.866779
2022-12-16T10:06:58.402Z,50.866859
2022-12-16T10:07:58.396Z,50.866776
2022-12-16T10:08:58.407Z,50.866817
2022-12-16T10:09:58.385Z,50.866810
2022-12-16T10:10:58.374Z,50.866806
2022-12-16T10:11:58.370Z,50.866806
2022-12-16T10:12:58.354Z,50.866787
2022-12-16T10:13:58.356Z,50.866791
2022-12-16T10:14:58.340Z,50.866795
2022-12-16T10:15:58.358Z,50.866768
2022-12-16T10:16:58.326Z,50.866749
2022-12-16T10:17:58.318Z,50.866760
2022-12-16T10:18:58.429Z,50.866730
2022-12-16T10:19:58.312Z,50.866749
2022-12-16T10:20:59.053Z,50.866787
2022-12-16T10:21:58.289Z,50.866787
2022-12-16T10:22:58.290Z,50.866772
2022-12-16T10:23:58.270Z,50.866756
2022-12-16T10:24:58.261Z,50.866837
2022-12-16T10:25:58.252Z,50.866787
2022-12-16T10:26:58.268Z,50.866768
2022-12-16T10:27:58.976Z,50.866779
2022-12-16T10:28:58.259Z,50.866802
2022-12-16T10:29:58.232Z,50.866863
2022-12-16T10:30:59.106Z,50.866787
2022-12-16T10:31:58.222Z,50.866802
2022-12-16T10:32:58.202Z,50.866810
2022-12-16T10:33:58.204Z,50.866779
2022-12-16T10:34:58.191Z,50.866749
2022-12-16T10:35:59.057Z,50.866783
2022-12-16T10:36:58.172Z,50.866867
2022-12-16T10:37:58.171Z,50.866795
2022-12-16T10:38:58.168Z,50.866898
2022-12-16T10:39:58.155Z,50.867001
2022-12-16T10:40:58.139Z,50.867264
2022-12-16T10:41:58.187Z,50.867146
2022-12-16T10:42:58.127Z,50.866928
2022-12-16T10:43:58.124Z,50.866539
2022-12-16T10:44:58.125Z,50.866692
2022-12-16T10:45:58.144Z,50.866699
2022-12-16T10:46:58.181Z,50.866856
2022-12-16T10:47:58.086Z,50.867214
2022-12-16T10:48:59.088Z,50.866913
2022-12-16T10:49:58.125Z,50.866512
2022-12-16T10:50:58.072Z,50.865944
2022-12-16T10:51:58.054Z,50.866295
2022-12-16T10:52:58.063Z,50.866146
2022-12-16T10:53:58.037Z,50.866596
2022-12-16T10:54:58.049Z,50.866879
2022-12-16T10:55:58.022Z,50.866837
2022-12-16T10:56:58.586Z,50.866642
2022-12-16T10:57:58.020Z,50.866951
2022-12-16T10:58:58.092Z,50.867035
2022-12-16T10:59:58.024Z,50.867043
2022-12-16T11:00:58.005Z,50.866970
2022-12-16T11:01:58.062Z,50.866859
2022-12-16T11:02:58.169Z,50.866577
2022-12-16T11:03:58.014Z,50.866989
2022-12-16T11:04:58.953Z,50.866985
2022-12-16T11:05:57.941Z,50.866871
2022-12-16T11:06:57.941Z,50.866840
2022-12-16T11:07:57.919Z,50.866619
2022-12-16T11:08:57.919Z,50.866238
2022-12-16T11:09:57.913Z,50.866699
2022-12-16T11:10:57.899Z,50.866642
2022-12-16T11:23:05.672Z,50.866814
2022-12-16T11:24:05.679Z,50.867012
2022-12-16T11:25:05.693Z,50.867138
2022-12-16T11:26:05.661Z,50.866856
2022-12-16T11:27:05.655Z,50.866932
2022-12-16T11:28:05.638Z,50.866829
2022-12-16T11:29:05.701Z,50.866810
2022-12-16T11:30:05.751Z,50.866879
2022-12-16T11:31:05.704Z,50.866867
2022-12-16T11:32:05.641Z,50.866905
2022-12-16T11:33:05.618Z,50.866840
2022-12-16T11:34:05.631Z,50.866882
2022-12-16T11:35:05.578Z,50.866814
2022-12-16T11:36:05.600Z,50.866764
2022-12-16T11:37:05.615Z,50.866726
2022-12-16T11:38:05.567Z,50.866776
2022-12-16T11:39:05.550Z,50.866802
2022-12-16T11:40:05.540Z,50.866806
2022-12-16T11:41:05.542Z,50.866871
2022-12-16T11:42:05.553Z,50.866901
2022-12-16T11:43:11.613Z,50.866951
2022-12-16T11:44:07.523Z,50.866795
2022-12-16T11:45:05.511Z,50.866745
2022-12-16T11:46:05.568Z,50.866642
2022-12-16T11:47:06.244Z,50.866604
2022-12-16T11:52:56.863Z,50.866924
2022-12-16T11:53:54.160Z,50.866783
2022-12-16T11:54:54.212Z,50.866852
2022-12-16T11:56:05.831Z,50.866711
2022-12-16T11:56:56.391Z,50.866779
2022-12-16T11:57:54.831Z,50.866646
2022-12-16T11:58:55.271Z,50.866756
2022-12-16T11:59:55.364Z,50.866726
2022-12-16T12:00:54.134Z,50.866821
2022-12-16T12:01:55.469Z,50.866852
2022-12-16T12:02:54.143Z,50.866825
2022-12-16T12:03:55.918Z,50.866806
2022-12-16T12:04:55.838Z,50.866760
2022-12-16T12:05:54.080Z,50.866779
2022-12-16T12:06:54.058Z,50.866802
2022-12-16T12:07:55.573Z,50.866795
2022-12-16T12:08:54.059Z,50.866795
2022-12-16T12:09:54.051Z,50.866718
2022-12-16T12:10:54.022Z,50.866753
2022-12-16T12:11:54.017Z,50.866783
2022-12-16T12:12:56.797Z,50.866787
2022-12-16T12:13:54.018Z,50.866867
2022-12-16T12:14:54.011Z,50.866779
2022-12-16T21:29:57.660Z,50.866615
2022-12-16T21:30:57.670Z,50.866631